createdAt,value
2023-04-20T00:01:12.649Z,100436.13
2023-04-20T00:03:39.404Z,100434.34
2023-04-20T00:06:06.147Z,100429.09
2023-04-20T00:08:32.743Z,100436.19
2023-04-20T00:10:59.448Z,100429.16
2023-04-20T00:13:26.373Z,100443.25
2023-04-20T00:15:52.951Z,100438.03
2023-04-20T00:18:19.530Z,100444.19
2023-04-20T00:20:46.414Z,100432.75
2023-04-20T00:23:15.893Z,100434.53
2023-04-20T00:25:43.748Z,100429.31
2023-04-20T00:28:10.635Z,100428.44
2023-04-20T00:30:37.287Z,100433.72
2023-04-20T00:33:03.982Z,100434.66
2023-04-20T00:35:33.463Z,100428.50
2023-04-20T00:38:00.101Z,100427.63
2023-04-20T00:40:26.861Z,100422.34
2023-04-20T00:42:53.715Z,100421.50
2023-04-20T00:45:22.294Z,100423.28
2023-04-20T00:47:49.298Z,100418.91
2023-04-20T00:50:16.188Z,100427.72
2023-04-20T00:52:42.787Z,100418.09
2023-04-20T00:55:09.613Z,100420.75
2023-04-20T00:57:38.456Z,100425.19
2023-04-20T01:00:07.438Z,100417.25
2023-04-20T01:02:34.105Z,100418.19
2023-04-20T01:05:01.765Z,100416.44
2023-04-20T01:07:30.113Z,100414.69
2023-04-20T01:09:56.835Z,100412.03
2023-04-20T01:12:23.452Z,100411.19
2023-04-20T01:14:50.037Z,100410.31
2023-04-20T01:17:17.415Z,100412.97
2023-04-20T01:19:45.014Z,100416.53
2023-04-20T01:22:18.342Z,100415.69
2023-04-20T01:24:46.413Z,100415.75
2023-04-20T01:27:13.854Z,100411.31
2023-04-20T01:29:40.757Z,100413.13
2023-04-20T01:32:07.597Z,100406.06
2023-04-20T01:34:34.397Z,100409.66
2023-04-20T01:37:01.751Z,100407.00
2023-04-20T01:39:30.253Z,100406.16
2023-04-20T01:41:56.981Z,100418.53
2023-04-20T01:44:23.700Z,100409.72
2023-04-20T01:46:53.273Z,100414.16
2023-04-20T01:49:20.066Z,100407.13
2023-04-20T01:51:46.762Z,100408.91
2023-04-20T01:54:13.511Z,100408.06
2023-04-20T01:56:42.776Z,100403.69
2023-04-20T01:59:09.357Z,100411.62
2023-04-20T02:01:35.927Z,100407.25
2023-04-20T02:04:02.798Z,100409.06
2023-04-20T02:06:29.585Z,100407.31
2023-04-20T02:08:56.539Z,100406.44
2023-04-20T02:11:25.841Z,100402.94
2023-04-20T02:13:52.586Z,100415.31
2023-04-20T02:16:19.221Z,100416.19
2023-04-20T02:18:45.986Z,100417.97
2023-04-20T02:21:12.639Z,100421.53
2023-04-20T02:23:39.269Z,100410.97
2023-04-20T02:26:06.059Z,100417.19
2023-04-20T02:28:32.627Z,100413.69
2023-04-20T02:30:59.231Z,100416.37
2023-04-20T02:33:26.308Z,100408.44
2023-04-20T02:35:52.938Z,100414.56
2023-04-20T02:38:19.516Z,100413.72
2023-04-20T02:40:46.151Z,100414.66
2023-04-20T02:43:12.786Z,100416.44
2023-04-20T02:45:39.448Z,100415.56
2023-04-20T02:48:06.445Z,100418.22
2023-04-20T02:50:33.157Z,100420.00
2023-04-20T02:52:59.792Z,100413.00
2023-04-20T02:55:27.274Z,100417.41
2023-04-20T02:57:53.973Z,100422.78
2023-04-20T03:00:20.742Z,100430.72
2023-04-20T03:02:47.480Z,100426.28
2023-04-20T03:05:14.099Z,100435.12
2023-04-20T03:07:40.969Z,100440.44
2023-04-20T03:10:08.507Z,100439.56
2023-04-20T03:12:35.982Z,100439.66
2023-04-20T03:15:07.234Z,100442.28
2023-04-20T03:17:34.196Z,100440.50
2023-04-20T03:20:00.845Z,100437.91
2023-04-20T03:22:27.432Z,100429.97
2023-04-20T03:24:54.050Z,100440.53
2023-04-20T03:27:20.998Z,100432.59
2023-04-20T03:29:48.888Z,100437.09
2023-04-20T03:32:15.632Z,100433.59
2023-04-20T03:34:42.359Z,100441.53
2023-04-20T03:37:09.036Z,100435.41
2023-04-20T03:39:35.726Z,100435.41
2023-04-20T03:42:02.311Z,100438.94
2023-04-20T03:44:28.937Z,100438.06
2023-04-20T03:46:55.689Z,100443.38
2023-04-20T03:49:23.640Z,100445.16
2023-04-20T03:51:50.509Z,100452.22
2023-04-20T03:54:17.319Z,100450.50
2023-04-20T03:56:46.014Z,100445.22
2023-04-20T03:59:12.623Z,100453.16
2023-04-20T04:01:39.288Z,100454.94
2023-04-20T04:04:06.406Z,100453.22
2023-04-20T04:06:33.221Z,100447.94
2023-04-20T04:08:59.811Z,100448.84
2023-04-20T04:11:29.945Z,100446.19
2023-04-20T04:13:57.957Z,100451.47
2023-04-20T04:16:24.677Z,100454.13
2023-04-20T04:18:51.454Z,100449.75
2023-04-20T04:21:18.272Z,100465.62
2023-04-20T04:23:44.885Z,100455.06
2023-04-20T04:26:12.127Z,100454.19
2023-04-20T04:28:38.847Z,100454.13
2023-04-20T04:31:08.384Z,100457.69
2023-04-20T04:33:35.191Z,100453.34
2023-04-20T04:36:02.546Z,100463.06
2023-04-20T04:38:29.231Z,100455.91
2023-04-20T04:40:56.483Z,100459.50
2023-04-20T04:43:24.364Z,100456.84
2023-04-20T04:45:51.003Z,100456.00
2023-04-20T04:48:17.690Z,100456.84
2023-04-20T04:50:50.952Z,100456.84
2023-04-20T04:53:17.580Z,100456.78
2023-04-20T04:55:44.159Z,100457.69
2023-04-20T04:58:13.657Z,100460.31
2023-04-20T05:00:40.436Z,100461.16
2023-04-20T05:03:07.129Z,100461.88
2023-04-20T05:05:33.834Z,100459.03
2023-04-20T05:08:00.512Z,100468.38
2023-04-20T05:10:27.092Z,100465.28
2023-04-20T05:12:53.796Z,100468.38
2023-04-20T05:15:20.515Z,100467.03
2023-04-20T05:17:49.724Z,100473.41
2023-04-20T05:20:16.556Z,100471.63
2023-04-20T05:22:43.151Z,100477.66
2023-04-20T05:25:14.011Z,100476.19
2023-04-20T05:27:40.826Z,100473.81
2023-04-20T05:30:19.578Z,100480.44
2023-04-20T05:32:50.935Z,100476.50
2023-04-20T05:35:18.742Z,100481.59
2023-04-20T05:37:45.491Z,100476.09
2023-04-20T05:40:12.450Z,100482.25
2023-04-20T05:42:39.121Z,100486.56
2023-04-20T05:45:06.406Z,100492.62
2023-04-20T05:47:32.996Z,100488.06
2023-04-20T05:49:59.684Z,100496.78
2023-04-20T05:52:26.250Z,100488.78
2023-04-20T05:54:53.255Z,100486.12
2023-04-20T05:57:20.744Z,100497.59
2023-04-20T05:59:47.354Z,100492.22
2023-04-20T06:02:13.957Z,100500.12
2023-04-20T06:04:42.525Z,100499.25
2023-04-20T06:07:09.610Z,100486.88
2023-04-20T06:09:36.217Z,100492.09
2023-04-20T06:12:03.684Z,100492.81
2023-04-20T06:14:30.348Z,100493.59
2023-04-20T06:16:59.294Z,100498.59
2023-04-20T06:19:25.908Z,100503.00
2023-04-20T06:21:52.534Z,100502.84
2023-04-20T06:24:19.301Z,100494.00
2023-04-20T06:26:46.025Z,100505.31
2023-04-20T06:29:12.688Z,100504.16
2023-04-20T06:31:39.343Z,100506.75
2023-04-20T06:34:06.282Z,100507.31
2023-04-20T06:36:32.917Z,100504.56
2023-04-20T06:38:59.563Z,100510.69
2023-04-20T06:41:26.374Z,100508.81
2023-04-20T06:43:53.025Z,100507.00
2023-04-20T06:46:19.805Z,100510.59
2023-04-20T06:48:46.455Z,100505.16
2023-04-20T06:51:14.066Z,100497.97
2023-04-20T06:53:40.840Z,100495.41
2023-04-20T06:56:07.886Z,100508.75
2023-04-20T06:58:34.508Z,100507.94
2023-04-20T07:01:01.823Z,100497.31
2023-04-20T07:03:28.609Z,100501.16
2023-04-20T07:05:55.613Z,100497.84
2023-04-20T07:08:22.469Z,100496.41
2023-04-20T07:10:49.097Z,100502.84
2023-04-20T07:13:16.194Z,100500.41
2023-04-20T07:15:46.447Z,100503.25
2023-04-20T07:18:13.071Z,100500.91
2023-04-20T07:20:39.764Z,100516.19
2023-04-20T07:23:06.553Z,100507.50
2023-04-20T07:25:33.285Z,100512.03
2023-04-20T07:27:59.978Z,100514.94
2023-04-20T07:30:26.621Z,100508.97
2023-04-20T07:32:53.322Z,100506.41
2023-04-20T07:35:19.976Z,100513.50
2023-04-20T07:37:47.608Z,100514.47
2023-04-20T07:40:14.268Z,100512.69
2023-04-20T07:42:41.277Z,100512.84
2023-04-20T07:45:08.582Z,100516.44
2023-04-20T07:47:35.428Z,100510.41
2023-04-20T07:50:02.528Z,100515.84
2023-04-20T07:52:29.136Z,100512.41
2023-04-20T07:54:58.687Z,100508.72
2023-04-20T07:57:28.537Z,100511.53
2023-04-20T07:59:55.232Z,100503.62
2023-04-20T08:02:22.013Z,100521.50
2023-04-20T08:04:49.809Z,100510.88
2023-04-20T08:07:16.791Z,100501.91
2023-04-20T08:09:43.859Z,100505.44
2023-04-20T08:12:10.562Z,100509.00
2023-04-20T08:14:38.228Z,100510.94
2023-04-20T08:17:04.955Z,100512.72
2023-04-20T08:19:31.556Z,100506.56
2023-04-20T08:21:59.021Z,100507.44
2023-04-20T08:24:26.804Z,100510.00
2023-04-20T08:26:53.453Z,100510.22
2023-04-20T08:29:20.043Z,100508.47
2023-04-20T08:31:46.926Z,100507.63
2023-04-20T08:34:14.440Z,100498.91
2023-04-20T08:36:41.196Z,100506.00
2023-04-20T08:39:12.322Z,100503.47
2023-04-20T08:41:39.154Z,100505.37
2023-04-20T08:44:06.801Z,100505.19
2023-04-20T08:46:33.844Z,100500.81
2023-04-20T08:49:04.206Z,100494.56
2023-04-20T08:51:33.558Z,100493.72
2023-04-20T08:54:05.540Z,100491.94
2023-04-20T08:56:34.947Z,100509.69
2023-04-20T08:59:03.848Z,100495.72
2023-04-20T09:01:35.552Z,100496.44
2023-04-20T09:04:03.587Z,100502.41
2023-04-20T09:06:31.174Z,100505.59
2023-04-20T09:08:57.785Z,100502.09
2023-04-20T09:11:25.295Z,100494.50
2023-04-20T09:14:06.670Z,100497.72
2023-04-20T09:16:34.804Z,100498.03
2023-04-20T09:19:04.026Z,100494.81
2023-04-20T09:21:31.506Z,100490.53
2023-04-20T09:24:11.369Z,100487.22
2023-04-20T09:26:37.993Z,100493.78
2023-04-20T09:29:04.939Z,100486.44
2023-04-20T09:31:31.604Z,100488.88
2023-04-20T09:34:02.644Z,100484.28
2023-04-20T09:36:46.409Z,100484.81
2023-04-20T09:39:15.613Z,100487.25
2023-04-20T09:41:42.287Z,100488.81
2023-04-20T09:44:09.349Z,100488.91
2023-04-20T09:46:37.352Z,100491.47
2023-04-20T09:49:05.468Z,100478.13
2023-04-20T09:51:39.427Z,100474.53
2023-04-20T09:54:06.563Z,100476.16
2023-04-20T09:56:34.641Z,100479.34
2023-04-20T09:59:01.740Z,100481.81
2023-04-20T10:01:32.477Z,100476.59
2023-04-20T10:04:00.082Z,100465.25
2023-04-20T10:06:34.428Z,100483.09
2023-04-20T10:09:02.264Z,100471.66
2023-04-20T10:11:40.685Z,100462.03
2023-04-20T10:14:23.309Z,100465.78
2023-04-20T10:17:04.215Z,100456.09
2023-04-20T10:19:40.119Z,100457.09
2023-04-20T10:22:06.942Z,100456.31
2023-04-20T10:24:33.671Z,100462.72
2023-04-20T10:27:00.386Z,100458.50
2023-04-20T10:29:27.630Z,100456.94
2023-04-20T10:31:57.383Z,100456.88
2023-04-20T10:34:31.648Z,100464.53
2023-04-20T10:37:09.104Z,100450.78
2023-04-20T10:39:37.780Z,100452.16
2023-04-20T10:42:04.435Z,100449.31
2023-04-20T10:44:31.021Z,100440.56
2023-04-20T10:46:57.690Z,100448.66
2023-04-20T10:49:28.873Z,100447.03
2023-04-20T10:51:56.022Z,100436.22
2023-04-20T10:54:22.713Z,100442.56
2023-04-20T10:56:53.017Z,100430.25
2023-04-20T10:59:21.519Z,100431.16
2023-04-20T11:01:48.398Z,100438.34
2023-04-20T11:04:17.831Z,100427.09
2023-04-20T11:06:47.001Z,100426.38
2023-04-20T11:09:33.883Z,100423.91
2023-04-20T11:12:14.836Z,100427.56
2023-04-20T11:14:55.361Z,100421.62
2023-04-20T11:17:34.530Z,100425.50
2023-04-20T11:20:15.636Z,100426.63
2023-04-20T11:22:43.132Z,100422.56
2023-04-20T11:25:11.156Z,100415.75
2023-04-20T11:27:38.312Z,100419.56
2023-04-20T11:30:05.716Z,100411.75
2023-04-20T11:32:33.273Z,100413.63
2023-04-20T11:35:06.626Z,100402.16
2023-04-20T11:37:34.800Z,100404.00
2023-04-20T11:40:10.312Z,100402.06
2023-04-20T11:42:37.251Z,100413.25
2023-04-20T11:45:04.135Z,100414.09
2023-04-20T11:47:30.827Z,100414.91
2023-04-20T11:49:57.482Z,100413.94
2023-04-20T11:52:24.099Z,100412.38
2023-04-20T11:54:51.092Z,100413.56
2023-04-20T11:57:17.839Z,100408.47
2023-04-20T11:59:48.024Z,100412.34
2023-04-20T12:02:15.364Z,100407.19
2023-04-20T12:04:42.262Z,100417.91
2023-04-20T12:07:09.186Z,100414.62
2023-04-20T12:09:38.084Z,100412.19
2023-04-20T12:12:05.310Z,100409.75
2023-04-20T12:14:33.716Z,100402.97
2023-04-20T12:17:04.354Z,100396.94
2023-04-20T12:19:33.584Z,100392.66
2023-04-20T12:22:00.279Z,100397.16
2023-04-20T12:24:26.917Z,100394.59
2023-04-20T12:26:53.554Z,100400.97
2023-04-20T12:29:20.649Z,100392.28
2023-04-20T12:31:47.507Z,100395.97
2023-04-20T12:34:14.178Z,100387.16
2023-04-20T12:36:41.102Z,100393.44
2023-04-20T12:39:07.759Z,100380.34
2023-04-20T12:41:34.540Z,100384.00
2023-04-20T12:44:03.478Z,100380.63
2023-04-20T12:46:32.069Z,100377.09
2023-04-20T12:48:58.767Z,100375.41
2023-04-20T12:51:25.357Z,100385.06
2023-04-20T12:53:52.007Z,100382.50
2023-04-20T12:56:18.719Z,100379.84
2023-04-20T12:58:45.469Z,100381.62
2023-04-20T13:01:12.162Z,100375.53
2023-04-20T13:03:39.031Z,100369.16
2023-04-20T13:06:06.038Z,100362.78
2023-04-20T13:08:32.780Z,100358.31
2023-04-20T13:10:59.403Z,100357.19
2023-04-20T13:13:26.222Z,100367.66
2023-04-20T13:15:55.830Z,100356.91
2023-04-20T13:18:24.190Z,100353.22
2023-04-20T13:20:50.800Z,100350.44
2023-04-20T13:23:18.063Z,100355.44
2023-04-20T13:25:44.665Z,100352.69
2023-04-20T13:28:14.487Z,100348.13
2023-04-20T13:30:41.506Z,100348.97
2023-04-20T13:33:08.209Z,100347.97
2023-04-20T13:35:35.004Z,100340.16
2023-04-20T13:38:03.978Z,100346.50
2023-04-20T13:40:30.732Z,100343.13
2023-04-20T13:42:57.561Z,100344.12
2023-04-20T13:45:24.702Z,100349.50
2023-04-20T13:47:51.440Z,100337.31
2023-04-20T13:50:18.070Z,100339.19
2023-04-20T13:52:44.654Z,100339.34
2023-04-20T13:55:11.473Z,100333.88
2023-04-20T13:57:38.090Z,100342.84
2023-04-20T14:00:05.391Z,100343.56
2023-04-20T14:02:32.725Z,100333.66
2023-04-20T14:04:59.661Z,100327.19
2023-04-20T14:07:26.794Z,100336.78
2023-04-20T14:09:56.454Z,100332.34
2023-04-20T14:12:23.201Z,100332.19
2023-04-20T14:14:49.901Z,100325.03
2023-04-20T14:17:22.519Z,100333.84
2023-04-20T14:19:49.686Z,100311.69
2023-04-20T14:22:16.478Z,100319.66
2023-04-20T14:24:45.312Z,100313.53
2023-04-20T14:27:11.998Z,100313.62
2023-04-20T14:29:38.623Z,100309.28
2023-04-20T14:32:05.382Z,100310.22
2023-04-20T14:34:32.016Z,100306.75
2023-04-20T14:36:58.609Z,100304.09
2023-04-20T14:39:25.204Z,100295.38
2023-04-20T14:41:51.949Z,100305.97
2023-04-20T14:44:18.723Z,100302.47
2023-04-20T14:46:45.569Z,100302.53
2023-04-20T14:49:12.242Z,100301.69
2023-04-20T14:51:38.812Z,100301.75
2023-04-20T14:54:05.517Z,100292.94
2023-04-20T14:56:32.325Z,100298.34
2023-04-20T14:58:59.734Z,100293.94
2023-04-20T15:01:27.578Z,100289.50
2023-04-20T15:03:54.654Z,100288.72
2023-04-20T15:06:21.533Z,100291.47
2023-04-20T15:08:48.123Z,100295.91
2023-04-20T15:11:17.432Z,100292.38
2023-04-20T15:13:44.049Z,100295.91
2023-04-20T15:16:10.696Z,100295.09
2023-04-20T15:18:37.323Z,100303.91
2023-04-20T15:21:03.991Z,100299.56
2023-04-20T15:23:31.135Z,100298.69
2023-04-20T15:25:57.763Z,100294.34
2023-04-20T15:28:24.403Z,100290.81
2023-04-20T15:30:51.327Z,100290.81
2023-04-20T15:33:18.086Z,100295.25
2023-04-20T15:35:44.730Z,100299.69
2023-04-20T15:38:11.328Z,100292.69
2023-04-20T15:40:38.835Z,100295.34
2023-04-20T15:43:06.018Z,100296.28
2023-04-20T15:45:32.811Z,100300.72
2023-04-20T15:48:00.949Z,100298.16
2023-04-20T15:50:27.712Z,100304.31
2023-04-20T15:52:54.780Z,100290.25
2023-04-20T15:55:22.239Z,100301.72
2023-04-20T15:57:48.859Z,100316.75
2023-04-20T16:00:15.943Z,100314.19
2023-04-20T16:02:42.646Z,100318.63
2023-04-20T16:05:09.584Z,100324.81
2023-04-20T16:07:36.276Z,100311.63
2023-04-20T16:10:03.127Z,100317.78
2023-04-20T16:12:29.841Z,100317.84
2023-04-20T16:14:57.387Z,100323.09
2023-04-20T16:17:24.308Z,100318.69
2023-04-20T16:19:51.014Z,100322.28
2023-04-20T16:22:17.764Z,100321.44
2023-04-20T16:24:44.601Z,100314.41
2023-04-20T16:27:11.210Z,100319.72
2023-04-20T16:29:37.876Z,100334.69
2023-04-20T16:32:04.556Z,100326.81
2023-04-20T16:34:31.700Z,100332.13
2023-04-20T16:36:58.638Z,100325.97
2023-04-20T16:39:25.388Z,100331.25
2023-04-20T16:41:52.091Z,100325.09
2023-04-20T16:44:18.981Z,100329.50
2023-04-20T16:46:49.645Z,100331.31
2023-04-20T16:49:16.368Z,100338.41
2023-04-20T16:51:43.136Z,100333.19
2023-04-20T16:54:11.487Z,100335.84
2023-04-20T16:56:38.509Z,100340.19
2023-04-20T16:59:05.252Z,100337.56
2023-04-20T17:01:32.104Z,100337.62
2023-04-20T17:03:59.757Z,100344.72
2023-04-20T17:06:27.454Z,100347.44
2023-04-20T17:08:55.949Z,100352.69
2023-04-20T17:11:22.604Z,100353.59
2023-04-20T17:13:49.233Z,100361.53
2023-04-20T17:16:15.962Z,100370.44
2023-04-20T17:18:42.630Z,100367.78
2023-04-20T17:21:09.237Z,100366.06
2023-04-20T17:23:35.995Z,100362.47
2023-04-20T17:26:03.130Z,100366.94
2023-04-20T17:28:29.811Z,100370.50
2023-04-20T17:30:56.435Z,100363.50
2023-04-20T17:33:23.085Z,100370.59
2023-04-20T17:35:49.753Z,100371.50
2023-04-20T17:38:16.334Z,100370.66
2023-04-20T17:40:42.953Z,100377.69
2023-04-20T17:43:09.579Z,100381.25
2023-04-20T17:45:36.770Z,100386.56
2023-04-20T17:48:03.533Z,100378.69
2023-04-20T17:50:30.242Z,100375.09
2023-04-20T17:52:57.035Z,100375.09
2023-04-20T17:55:23.748Z,100379.53
2023-04-20T17:57:50.928Z,100383.13
2023-04-20T18:00:18.644Z,100384.91
2023-04-20T18:02:45.581Z,100389.37
2023-04-20T18:05:12.576Z,100392.87
2023-04-20T18:07:39.229Z,100399.97
2023-04-20T18:10:06.452Z,100397.38
2023-04-20T18:12:33.651Z,100405.31
2023-04-20T18:15:00.801Z,100408.91
2023-04-20T18:17:27.455Z,100411.56
2023-04-20T18:19:54.114Z,100408.91
2023-04-20T18:22:20.915Z,100412.50
2023-04-20T18:24:47.566Z,100423.09
2023-04-20T18:27:14.197Z,100422.22
2023-04-20T18:29:40.820Z,100432.84
2023-04-20T18:32:07.400Z,100431.97
2023-04-20T18:34:34.065Z,100440.78
2023-04-20T18:37:00.665Z,100445.28
2023-04-20T18:39:27.370Z,100447.03
2023-04-20T18:41:56.292Z,100449.69
2023-04-20T18:44:23.177Z,100449.72
2023-04-20T18:46:52.270Z,100447.94
2023-04-20T18:49:18.903Z,100445.28
2023-04-20T18:51:45.566Z,100455.03
2023-04-20T18:54:12.214Z,100453.31
2023-04-20T18:56:39.595Z,100452.38
2023-04-20T18:59:07.629Z,100453.38
2023-04-20T19:01:37.147Z,100454.25
2023-04-20T19:04:03.971Z,100452.44
2023-04-20T19:06:31.320Z,100453.31
2023-04-20T19:08:57.928Z,100455.19
2023-04-20T19:11:24.580Z,100449.88
2023-04-20T19:13:51.179Z,100463.13
2023-04-20T19:16:17.864Z,100452.53
2023-04-20T19:18:45.164Z,100460.47
2023-04-20T19:21:11.882Z,100461.38
2023-04-20T19:23:38.524Z,100458.72
2023-04-20T19:26:06.198Z,100458.72
2023-04-20T19:28:32.895Z,100460.53
2023-04-20T19:30:59.713Z,100464.03
2023-04-20T19:33:26.384Z,100465.81
2023-04-20T19:35:53.530Z,100470.25
2023-04-20T19:38:21.132Z,100473.81
2023-04-20T19:40:47.972Z,100475.53
2023-04-20T19:43:14.584Z,100476.47
2023-04-20T19:45:41.204Z,100479.12
2023-04-20T19:48:07.882Z,100482.62
2023-04-20T19:50:34.681Z,100487.06
2023-04-20T19:53:01.202Z,100480.06
2023-04-20T19:55:27.888Z,100483.66
2023-04-20T19:57:54.523Z,100478.34
2023-04-20T20:00:22.361Z,100488.94
2023-04-20T20:02:49.152Z,100489.81
2023-04-20T20:05:15.973Z,100490.69
2023-04-20T20:07:42.579Z,100492.50
2023-04-20T20:10:09.277Z,100497.78
2023-04-20T20:12:36.049Z,100486.34
2023-04-20T20:15:04.046Z,100485.47
2023-04-20T20:17:30.832Z,100491.63
2023-04-20T20:19:58.111Z,100506.69
2023-04-20T20:22:24.716Z,100494.28
2023-04-20T20:24:54.191Z,100495.22
2023-04-20T20:27:21.280Z,100500.53
2023-04-20T20:29:47.896Z,100496.16
2023-04-20T20:32:14.489Z,100491.78
2023-04-20T20:34:41.403Z,100495.31
2023-04-20T20:37:10.380Z,100489.16
2023-04-20T20:39:37.420Z,100498.84
2023-04-20T20:42:04.808Z,100493.63
2023-04-20T20:44:39.075Z,100498.06
2023-04-20T20:49:32.948Z,100506.03
2023-04-20T20:51:59.832Z,100506.94
2023-04-20T20:54:26.415Z,100511.31
2023-04-20T20:56:53.091Z,100506.94
2023-04-20T20:59:19.802Z,100504.31
2023-04-20T21:01:46.639Z,100511.41
2023-04-20T21:04:13.351Z,100516.69
2023-04-20T21:06:40.017Z,100512.34
2023-04-20T21:09:06.650Z,100511.44
2023-04-20T21:11:33.221Z,100514.97
2023-04-20T21:14:01.936Z,100507.94
2023-04-20T21:16:29.163Z,100512.38
2023-04-20T21:18:55.883Z,100515.88
2023-04-20T21:21:22.462Z,100513.22
2023-04-20T21:23:49.827Z,100517.69
2023-04-20T21:26:16.486Z,100519.47
2023-04-20T21:28:43.063Z,100526.56
2023-04-20T21:31:09.655Z,100523.91
2023-04-20T21:33:36.294Z,100516.88
2023-04-20T21:36:02.897Z,100519.53
2023-04-20T21:38:29.497Z,100523.97
2023-04-20T21:40:56.073Z,100513.38
2023-04-20T21:43:22.634Z,100518.69
2023-04-20T21:45:50.825Z,100523.12
2023-04-20T21:48:17.937Z,100516.94
2023-04-20T21:50:44.518Z,100522.22
2023-04-20T21:53:11.147Z,100524.03
2023-04-20T21:55:37.718Z,100527.59
2023-04-20T21:58:04.352Z,100525.81
2023-04-20T22:00:31.070Z,100520.50
2023-04-20T22:02:57.832Z,100522.31
2023-04-20T22:05:24.720Z,100528.47
2023-04-20T22:07:51.406Z,100530.25
2023-04-20T22:10:18.064Z,100525.81
2023-04-20T22:12:44.837Z,100531.13
2023-04-20T22:15:15.031Z,100529.41
2023-04-20T22:17:41.800Z,100534.69
2023-04-20T22:20:09.859Z,100528.53
2023-04-20T22:22:36.818Z,100520.59
2023-04-20T22:25:04.617Z,100523.25
2023-04-20T22:27:31.860Z,100516.22
2023-04-20T22:29:58.472Z,100513.56
2023-04-20T22:32:25.110Z,100519.78
2023-04-20T22:34:51.709Z,100518.87
2023-04-20T22:37:18.297Z,100512.72
2023-04-20T22:39:44.880Z,100514.47
2023-04-20T22:42:11.472Z,100514.47
2023-04-20T22:44:38.079Z,100514.47
2023-04-20T22:47:04.880Z,100510.12
2023-04-20T22:49:31.876Z,100509.25
2023-04-20T22:51:58.519Z,100509.34
2023-04-20T22:54:25.213Z,100516.34
2023-04-20T22:56:51.870Z,100505.75
2023-04-20T22:59:21.383Z,100506.69
2023-04-20T23:01:48.588Z,100504.03
2023-04-20T23:04:15.683Z,100510.28
2023-04-20T23:06:45.226Z,100504.97
2023-04-20T23:09:13.261Z,100506.75
2023-04-20T23:11:40.242Z,100506.75
2023-04-20T23:14:07.327Z,100505.88
2023-04-20T23:16:34.281Z,100507.66
2023-04-20T23:19:01.132Z,100505.88
2023-04-20T23:21:28.677Z,100505.94
2023-04-20T23:23:58.594Z,100508.66
2023-04-20T23:26:25.346Z,100506.03
2023-04-20T23:28:52.453Z,100505.16
2023-04-20T23:31:19.812Z,100505.16
2023-04-20T23:33:49.785Z,100500.75
2023-04-20T23:36:16.372Z,100506.03
2023-04-20T23:38:43.229Z,100503.41
2023-04-20T23:41:14.052Z,100507.00
2023-04-20T23:43:41.110Z,100505.19
2023-04-20T23:46:08.108Z,100502.56
2023-04-20T23:48:34.900Z,100504.41
2023-04-20T23:51:02.301Z,100509.72
2023-04-20T23:53:28.961Z,100513.22
2023-04-20T23:55:55.812Z,100504.41
2023-04-20T23:58:25.989Z,100512.38
